Time;durP1;ratioP1;P1;durP2;ratioP2;P2;SDS_P1;SDS_P2;PMS_P1;PMS_P2;Temp;Humidity;BMP_temperature;BMP_pressure;BME280_temperature;BME280_humidity;BME280_pressure;Samples;Min_cycle;Max_cycle;Signal;HPM_P1;HPM_P2
2021/09/28 00:01:58;;;;;;;5.28;1.13;;;11.50;99.90;;;;;;5043335;28;20513;-68
2021/09/28 00:04:23;;;;;;;6.25;1.33;;;11.50;99.90;;;;;;5043039;28;20037;-67
2021/09/28 00:06:50;;;;;;;8.05;1.52;;;11.50;99.90;;;;;;5026817;28;20048;-67
2021/09/28 00:09:15;;;;;;;4.00;1.20;;;11.40;99.90;;;;;;5024794;28;20060;-67
2021/09/28 00:11:41;;;;;;;5.65;1.33;;;11.40;99.90;;;;;;5042086;28;20402;-67
2021/09/28 00:14:07;;;;;;;3.80;1.20;;;11.40;99.90;;;;;;5044677;28;20032;-67
2021/09/28 00:16:32;;;;;;;7.82;1.80;;;11.30;99.90;;;;;;5043482;28;20047;-67
2021/09/28 00:18:58;;;;;;;8.48;1.60;;;11.30;99.90;;;;;;5043383;28;20530;-67
2021/09/28 00:21:25;;;;;;;3.40;1.52;;;11.30;99.90;;;;;;5043385;28;20056;-67
2021/09/28 00:23:51;;;;;;;4.75;1.38;;;11.30;99.90;;;;;;5024623;28;20049;-67
2021/09/28 00:26:17;;;;;;;4.85;1.52;;;11.40;99.90;;;;;;5040459;28;20392;-67
2021/09/28 00:28:42;;;;;;;7.30;1.85;;;11.30;99.90;;;;;;5026002;28;20044;-67
2021/09/28 00:31:08;;;;;;;4.28;1.25;;;11.30;99.90;;;;;;5027235;28;20403;-67
2021/09/28 00:33:33;;;;;;;7.43;2.42;;;11.30;99.90;;;;;;5041373;28;20614;-67
2021/09/28 00:35:59;;;;;;;8.52;2.22;;;11.30;99.90;;;;;;5027225;28;20033;-67
2021/09/28 00:38:25;;;;;;;7.28;1.90;;;11.00;99.90;;;;;;5043232;28;20124;-67
2021/09/28 00:40:51;;;;;;;9.30;3.22;;;11.30;99.90;;;;;;5027542;28;20066;-67
2021/09/28 00:43:17;;;;;;;7.07;1.80;;;11.30;99.90;;;;;;5027226;28;20041;-67
2021/09/28 00:45:42;;;;;;;5.20;1.30;;;11.30;99.90;;;;;;5040997;28;20392;-67
2021/09/28 00:48:08;;;;;;;4.93;1.60;;;11.30;99.90;;;;;;5042033;28;20103;-67
2021/09/28 00:50:34;;;;;;;7.13;1.15;;;11.30;99.90;;;;;;5024867;28;20037;-68
2021/09/28 00:53:00;;;;;;;4.65;1.20;;;11.30;99.90;;;;;;5026449;28;20144;-67
2021/09/28 00:55:29;;;;;;;6.15;1.60;;;11.20;99.90;;;;;;5025335;28;20543;-68
2021/09/28 00:57:56;;;;;;;9.30;1.80;;;11.20;99.90;;;;;;5043315;28;20520;-67
2021/09/28 01:00:22;;;;;;;4.97;2.25;;;11.20;99.90;;;;;;5042746;28;20036;-67
2021/09/28 01:02:48;;;;;;;9.73;2.15;;;11.10;99.90;;;;;;5025554;28;20056;-67
2021/09/28 01:05:14;;;;;;;7.82;2.20;;;11.10;99.90;;;;;;5041243;28;20053;-67
2021/09/28 01:07:40;;;;;;;8.10;2.28;;;11.10;99.90;;;;;;5025986;28;20363;-67
2021/09/28 01:10:08;;;;;;;3.47;1.70;;;11.10;99.90;;;;;;5024507;28;20124;-67
2021/09/28 01:12:33;;;;;;;9.63;2.40;;;11.10;99.90;;;;;;5042455;28;21007;-68
2021/09/28 01:14:59;;;;;;;7.38;2.58;;;11.10;99.90;;;;;;5040800;28;20080;-67
2021/09/28 01:17:25;;;;;;;4.20;2.13;;;11.10;99.90;;;;;;5025148;28;20083;-68
2021/09/28 01:19:50;;;;;;;6.38;2.10;;;11.10;99.90;;;;;;5024956;28;20087;-67
2021/09/28 01:22:17;;;;;;;5.47;2.20;;;11.10;99.90;;;;;;5024630;28;20080;-67
2021/09/28 01:24:45;;;;;;;7.35;2.40;;;11.10;99.90;;;;;;5041862;28;20032;-67
2021/09/28 01:27:11;;;;;;;7.55;2.55;;;11.10;99.90;;;;;;5042126;28;20048;-67
2021/09/28 01:29:37;;;;;;;7.82;2.55;;;11.10;99.90;;;;;;5042372;28;20045;-67
2021/09/28 01:32:04;;;;;;;6.78;2.58;;;11.10;99.90;;;;;;5040379;28;20570;-67
2021/09/28 01:34:30;;;;;;;7.85;2.45;;;11.10;99.90;;;;;;5042029;28;20379;-67
2021/09/28 01:36:55;;;;;;;3.65;1.63;;;11.10;99.90;;;;;;5025618;28;20037;-67
2021/09/28 01:39:22;;;;;;;8.30;2.50;;;11.10;99.90;;;;;;5025809;28;20095;-68
2021/09/28 01:41:48;;;;;;;8.05;3.20;;;11.00;99.90;;;;;;5024478;28;20068;-67
2021/09/28 01:44:16;;;;;;;6.50;2.40;;;11.00;99.90;;;;;;5007679;28;20750;-67
2021/09/28 01:46:44;;;;;;;10.70;2.40;;;11.00;99.90;;;;;;5025070;28;20033;-67
2021/09/28 01:49:12;;;;;;;8.00;2.58;;;11.00;99.90;;;;;;5025507;28;20049;-67
2021/09/28 01:51:38;;;;;;;6.40;2.75;;;10.90;99.90;;;;;;5024468;28;20067;-67
2021/09/28 01:54:05;;;;;;;11.25;2.83;;;10.90;99.90;;;;;;5026976;28;20044;-67
2021/09/28 01:56:32;;;;;;;6.88;2.90;;;10.90;99.90;;;;;;5046471;28;20056;-67
2021/09/28 01:59:00;;;;;;;6.20;3.08;;;10.90;99.90;;;;;;5046383;28;20044;-67
2021/09/28 02:01:27;;;;;;;9.20;3.58;;;10.90;99.90;;;;;;5030837;28;20036;-67
2021/09/28 02:03:53;;;;;;;6.82;3.08;;;10.90;99.90;;;;;;5030407;28;20128;-67
2021/09/28 02:06:21;;;;;;;6.57;3.10;;;10.90;99.90;;;;;;5047267;28;20115;-67
2021/09/28 02:08:48;;;;;;;12.75;4.53;;;10.90;99.90;;;;;;5030651;28;20479;-67
2021/09/28 02:11:13;;;;;;;10.52;3.42;;;10.90;99.90;;;;;;5028802;28;20049;-67
2021/09/28 02:13:39;;;;;;;6.05;3.55;;;10.90;99.90;;;;;;5046137;28;20037;-67
2021/09/28 02:16:05;;;;;;;7.35;3.88;;;10.90;99.90;;;;;;5029776;28;20036;-68
2021/09/28 02:18:31;;;;;;;10.35;3.65;;;10.90;99.90;;;;;;5046294;28;20052;-67
2021/09/28 02:20:57;;;;;;;12.80;4.10;;;10.90;99.90;;;;;;5029278;28;20037;-67
2021/09/28 02:23:31;;;;;;;15.10;4.15;;;10.90;99.90;;;;;;5028864;28;20483;-67
2021/09/28 02:25:57;;;;;;;10.00;4.70;;;10.80;99.90;;;;;;5046283;28;20076;-67
2021/09/28 02:28:23;;;;;;;9.38;4.28;;;10.80;99.90;;;;;;5031126;28;20053;-67
2021/09/28 02:30:49;;;;;;;9.60;4.40;;;10.80;99.90;;;;;;5046468;28;20634;-67
2021/09/28 02:33:14;;;;;;;9.43;4.20;;;10.80;99.90;;;;;;5029189;28;20036;-67
2021/09/28 02:35:40;;;;;;;12.07;4.57;;;10.80;99.90;;;;;;5030908;28;20090;-67
2021/09/28 02:38:05;;;;;;;6.57;4.20;;;10.80;99.90;;;;;;5044205;28;20106;-67
2021/09/28 02:40:31;;;;;;;12.50;4.63;;;10.80;99.90;;;;;;5026194;28;20047;-67
2021/09/28 02:42:57;;;;;;;12.00;4.40;;;10.80;99.90;;;;;;5050203;28;20045;-67
2021/09/28 02:45:22;;;;;;;13.57;5.05;;;10.80;99.90;;;;;;5033001;28;20056;-67
2021/09/28 02:47:48;;;;;;;16.58;4.80;;;10.80;99.90;;;;;;5033316;28;20072;-67
2021/09/28 02:50:14;;;;;;;12.63;5.03;;;10.80;99.90;;;;;;5031765;28;20041;-67
2021/09/28 02:52:40;;;;;;;15.23;4.97;;;10.80;99.90;;;;;;5032642;28;20572;-67
2021/09/28 02:55:06;;;;;;;13.82;4.85;;;10.80;99.90;;;;;;5049449;28;20045;-67
2021/09/28 02:57:32;;;;;;;10.57;5.07;;;10.80;99.90;;;;;;5050409;28;20487;-67
2021/09/28 02:59:57;;;;;;;12.40;5.60;;;10.70;99.90;;;;;;5030209;28;20044;-67
2021/09/28 03:02:23;;;;;;;15.82;5.68;;;10.70;99.90;;;;;;5048350;28;20037;-67
2021/09/28 03:04:49;;;;;;;17.85;5.07;;;10.70;99.90;;;;;;5030089;28;20093;-67
2021/09/28 03:07:14;;;;;;;11.48;5.07;;;10.70;99.90;;;;;;5048642;28;20119;-67
2021/09/28 03:09:40;;;;;;;15.90;6.38;;;10.70;99.90;;;;;;5031332;28;20037;-67
2021/09/28 03:12:07;;;;;;;10.63;5.57;;;10.70;99.90;;;;;;5046428;28;20041;-67
2021/09/28 03:14:32;;;;;;;10.13;5.68;;;10.70;99.90;;;;;;5047123;28;20095;-68
2021/09/28 03:16:58;;;;;;;10.68;5.13;;;10.70;99.90;;;;;;5015931;28;20036;-67
2021/09/28 03:19:24;;;;;;;14.73;5.60;;;10.70;99.90;;;;;;5031646;28;20048;-67
2021/09/28 03:21:50;;;;;;;11.77;5.32;;;10.70;99.90;;;;;;5047617;28;20041;-67
2021/09/28 03:24:16;;;;;;;12.85;5.75;;;10.70;99.90;;;;;;5048271;28;20037;-67
2021/09/28 03:26:42;;;;;;;12.10;6.07;;;10.70;99.90;;;;;;5029398;28;20037;-67
2021/09/28 03:29:07;;;;;;;15.57;6.43;;;10.60;99.90;;;;;;5031026;28;20680;-67
2021/09/28 03:31:33;;;;;;;11.23;6.25;;;10.70;99.90;;;;;;5013346;28;1031782;-67
2021/09/28 03:33:59;;;;;;;16.13;6.03;;;10.70;99.90;;;;;;5050912;28;20094;-67
2021/09/28 03:36:24;;;;;;;15.25;5.78;;;10.70;99.90;;;;;;5032595;28;20041;-67
2021/09/28 03:38:50;;;;;;;11.95;5.82;;;10.70;99.90;;;;;;5031953;28;20178;-67
2021/09/28 03:41:16;;;;;;;9.93;5.55;;;10.90;99.90;;;;;;5032311;28;20549;-67
2021/09/28 03:43:41;;;;;;;12.43;6.03;;;10.70;99.90;;;;;;5014480;28;20049;-67
2021/09/28 03:46:07;;;;;;;8.80;6.07;;;10.60;99.90;;;;;;5050113;28;20379;-67
2021/09/28 03:48:33;;;;;;;10.57;6.05;;;10.70;99.90;;;;;;5048433;28;20045;-68
2021/09/28 03:50:58;;;;;;;18.50;5.47;;;10.60;99.90;;;;;;5032142;28;20048;-67
2021/09/28 03:53:24;;;;;;;12.05;5.38;;;10.60;99.90;;;;;;5032109;28;20419;-67
2021/09/28 03:55:50;;;;;;;11.77;6.38;;;10.70;99.90;;;;;;5051952;28;20068;-67
2021/09/28 03:58:16;;;;;;;15.90;6.35;;;10.70;99.90;;;;;;5032305;28;20072;-67
2021/09/28 04:00:43;;;;;;;14.13;6.28;;;10.70;99.90;;;;;;5032954;28;20052;-67
2021/09/28 04:03:09;;;;;;;21.10;6.40;;;10.70;99.90;;;;;;5031249;28;20045;-67
2021/09/28 04:05:39;;;;;;;12.23;5.68;;;10.70;99.90;;;;;;5033805;28;20041;-67
2021/09/28 04:08:05;;;;;;;16.00;6.30;;;10.70;99.90;;;;;;5049054;28;20071;-67
2021/09/28 04:10:34;;;;;;;8.43;5.35;;;10.70;99.90;;;;;;5048811;28;20124;-67
2021/09/28 04:13:00;;;;;;;12.82;5.55;;;10.70;99.90;;;;;;5048874;28;20040;-67
2021/09/28 04:15:26;;;;;;;12.50;6.45;;;10.60;99.90;;;;;;5032021;28;20094;-67
2021/09/28 04:17:52;;;;;;;12.05;5.75;;;10.60;99.90;;;;;;5052840;28;20037;-67
2021/09/28 04:20:18;;;;;;;15.95;6.00;;;10.70;99.90;;;;;;5047983;28;20036;-67
2021/09/28 04:22:45;;;;;;;17.92;6.07;;;10.60;99.90;;;;;;5032400;28;20116;-67
2021/09/28 04:25:11;;;;;;;11.07;6.10;;;10.60;99.90;;;;;;5048244;28;20044;-67
2021/09/28 04:27:37;;;;;;;14.50;6.90;;;10.60;99.90;;;;;;5048419;28;20036;-67
2021/09/28 04:30:04;;;;;;;17.60;7.30;;;10.60;99.90;;;;;;5030957;28;20127;-67
2021/09/28 04:32:30;;;;;;;15.57;6.70;;;10.60;99.90;;;;;;5031285;28;20053;-67
2021/09/28 04:34:56;;;;;;;14.55;6.35;;;10.60;99.90;;;;;;5032451;28;20044;-67
2021/09/28 04:37:21;;;;;;;18.33;7.45;;;10.60;99.90;;;;;;5047933;28;20048;-67
2021/09/28 04:39:47;;;;;;;14.18;5.68;;;10.60;99.90;;;;;;5045790;28;20475;-67
2021/09/28 04:42:15;;;;;;;14.55;6.45;;;10.60;99.90;;;;;;5030669;28;20048;-67
2021/09/28 04:44:42;;;;;;;16.65;6.93;;;10.60;99.90;;;;;;5031242;28;20525;-67
2021/09/28 04:47:07;;;;;;;14.90;6.07;;;10.60;99.90;;;;;;5031021;28;20148;-67
2021/09/28 04:49:33;;;;;;;15.65;7.43;;;10.60;99.90;;;;;;5046753;28;20123;-67
2021/09/28 04:51:58;;;;;;;17.30;7.22;;;10.60;99.90;;;;;;5028381;28;20076;-67
2021/09/28 04:54:24;;;;;;;18.67;8.63;;;10.60;99.90;;;;;;5029871;28;20088;-67
2021/09/28 04:56:50;;;;;;;15.38;6.53;;;10.60;99.90;;;;;;5030098;28;20052;-67
2021/09/28 04:59:15;;;;;;;19.42;9.85;;;10.60;99.90;;;;;;5029475;28;20051;-67
2021/09/28 05:01:41;;;;;;;13.52;7.25;;;10.60;99.90;;;;;;5046196;28;20041;-67
2021/09/28 05:04:07;;;;;;;18.33;7.97;;;10.60;99.90;;;;;;5013702;28;20041;-67
2021/09/28 05:06:33;;;;;;;18.00;7.60;;;10.50;99.90;;;;;;5034589;28;20053;-67
2021/09/28 05:08:58;;;;;;;14.57;7.70;;;10.50;99.90;;;;;;5049930;28;20414;-67
2021/09/28 05:11:24;;;;;;;18.33;7.10;;;10.60;99.90;;;;;;5030730;28;20068;-67
2021/09/28 05:13:49;;;;;;;21.30;8.60;;;10.60;99.90;;;;;;5031059;28;20049;-67
2021/09/28 05:16:17;;;;;;;18.67;8.40;;;10.50;99.90;;;;;;5041948;28;20136;-67
2021/09/28 05:18:42;;;;;;;17.48;8.18;;;10.50;99.90;;;;;;5041511;28;20096;-67
2021/09/28 05:21:09;;;;;;;19.15;8.00;;;10.50;99.90;;;;;;5040319;28;20049;-67
2021/09/28 05:23:35;;;;;;;18.02;8.00;;;10.50;99.90;;;;;;5039330;28;20041;-67
2021/09/28 05:26:00;;;;;;;16.45;8.52;;;10.50;99.90;;;;;;5040749;28;20048;-67
2021/09/28 05:28:26;;;;;;;21.27;8.15;;;10.50;99.90;;;;;;5024872;28;20045;-67
2021/09/28 05:30:54;;;;;;;19.00;8.43;;;10.50;99.90;;;;;;5025878;28;20043;-67
2021/09/28 05:33:20;;;;;;;20.63;8.27;;;10.50;99.90;;;;;;5024524;28;20057;-67
2021/09/28 05:35:45;;;;;;;20.23;8.80;;;10.50;99.90;;;;;;5025310;28;20044;-67
2021/09/28 05:38:11;;;;;;;14.13;8.40;;;10.50;99.90;;;;;;5023726;28;20202;-67
2021/09/28 05:40:37;;;;;;;19.08;8.43;;;10.60;99.90;;;;;;5023864;28;20048;-67
2021/09/28 05:43:02;;;;;;;15.10;7.68;;;10.50;99.90;;;;;;5040907;28;20049;-67
2021/09/28 05:45:28;;;;;;;16.17;7.70;;;10.60;99.90;;;;;;5040710;28;20053;-66
2021/09/28 05:47:53;;;;;;;14.40;7.63;;;10.60;99.90;;;;;;5039912;28;20060;-67
2021/09/28 05:50:21;;;;;;;17.95;7.95;;;10.60;99.90;;;;;;5040272;28;20044;-67
2021/09/28 05:52:47;;;;;;;23.65;9.52;;;10.60;99.90;;;;;;5024229;28;20160;-67
2021/09/28 05:55:13;;;;;;;18.48;8.07;;;10.60;99.90;;;;;;5025868;28;20051;-67
2021/09/28 05:57:41;;;;;;;11.68;7.57;;;10.70;99.90;;;;;;5022714;28;20053;-67
2021/09/28 06:00:08;;;;;;;18.05;7.38;;;10.70;99.90;;;;;;5022673;28;20080;-67
2021/09/28 06:02:33;;;;;;;15.75;8.07;;;10.70;99.90;;;;;;5022724;28;20047;-67
2021/09/28 06:04:59;;;;;;;19.50;8.43;;;10.80;99.90;;;;;;5023863;28;20045;-67
2021/09/28 06:07:24;;;;;;;14.70;8.10;;;10.80;99.90;;;;;;5024116;28;20124;-67
2021/09/28 06:09:50;;;;;;;14.50;6.65;;;10.90;99.90;;;;;;5026568;28;20041;-67
2021/09/28 06:12:17;;;;;;;14.93;5.78;;;11.20;99.90;;;;;;5042857;28;20047;-67
2021/09/28 06:14:42;;;;;;;12.73;4.53;;;11.50;99.90;;;;;;5024748;28;20045;-67
2021/09/28 06:17:09;;;;;;;11.95;4.70;;;12.20;99.90;;;;;;5046838;28;20066;-67
2021/09/28 06:19:35;;;;;;;11.93;4.22;;;12.80;99.90;;;;;;5029263;28;20498;-67
2021/09/28 06:22:03;;;;;;;9.40;3.58;;;13.50;99.90;;;;;;5037952;28;20053;-67
2021/09/28 06:24:32;;;;;;;15.88;4.32;;;14.20;99.90;;;;;;5045497;28;20071;-67
2021/09/28 06:26:58;;;;;;;15.40;4.00;;;14.90;99.90;;;;;;5029518;28;20067;-67
2021/09/28 06:29:23;;;;;;;13.85;4.43;;;15.50;99.90;;;;;;5045026;28;20510;-67
2021/09/28 06:31:49;;;;;;;8.68;3.47;;;15.90;99.90;;;;;;5028436;28;20044;-67
2021/09/28 06:34:15;;;;;;;9.23;3.90;;;16.40;99.90;;;;;;5044234;28;20043;-67
2021/09/28 06:36:40;;;;;;;11.68;3.88;;;16.80;99.90;;;;;;5041164;28;20045;-68
2021/09/28 06:39:07;;;;;;;11.23;3.97;;;16.80;99.90;;;;;;5045020;28;20549;-67
2021/09/28 06:41:33;;;;;;;13.13;4.18;;;16.50;99.90;;;;;;5045631;28;20040;-67
2021/09/28 06:43:59;;;;;;;10.13;4.22;;;16.10;99.90;;;;;;5043919;28;21096;-68
2021/09/28 06:46:25;;;;;;;11.90;4.75;;;15.60;99.90;;;;;;5027368;28;20045;-67
2021/09/28 06:48:51;;;;;;;15.88;4.63;;;15.30;99.90;;;;;;5029647;28;20052;-67
2021/09/28 06:51:17;;;;;;;11.75;4.47;;;14.90;99.90;;;;;;5028518;28;20041;-67
2021/09/28 06:53:44;;;;;;;12.95;4.53;;;14.70;99.90;;;;;;5045289;28;20068;-67
2021/09/28 06:56:11;;;;;;;11.43;4.93;;;14.50;99.90;;;;;;5044073;28;20037;-67
2021/09/28 06:58:37;;;;;;;14.60;4.63;;;14.30;99.90;;;;;;5027834;28;20073;-67
2021/09/28 07:01:03;;;;;;;15.93;5.75;;;14.30;99.90;;;;;;5027467;28;20133;-67
2021/09/28 07:03:30;;;;;;;14.10;5.45;;;14.40;99.90;;;;;;5027691;28;20060;-67
2021/09/28 07:05:56;;;;;;;14.73;5.50;;;14.50;99.90;;;;;;5030627;28;20048;-67
2021/09/28 07:08:22;;;;;;;13.75;4.75;;;14.50;99.90;;;;;;5028181;28;20037;-67
2021/09/28 07:10:47;;;;;;;13.05;5.03;;;14.30;99.90;;;;;;5044160;28;20037;-67
2021/09/28 07:13:13;;;;;;;10.90;4.80;;;14.30;99.90;;;;;;5044649;28;20547;-67
2021/09/28 07:15:39;;;;;;;12.60;4.78;;;14.30;99.90;;;;;;5027085;28;20537;-67
2021/09/28 07:18:05;;;;;;;14.75;5.63;;;14.20;99.90;;;;;;5042978;28;20036;-67
2021/09/28 07:20:31;;;;;;;13.98;5.32;;;14.10;99.90;;;;;;5026806;28;20045;-67
2021/09/28 07:22:57;;;;;;;14.40;5.55;;;14.00;99.90;;;;;;5027390;28;20060;-67
2021/09/28 07:25:22;;;;;;;13.20;5.40;;;13.90;99.90;;;;;;5045684;28;20044;-67
2021/09/28 07:27:48;;;;;;;16.52;5.43;;;13.90;99.90;;;;;;5012577;28;20385;-67
2021/09/28 07:30:14;;;;;;;15.85;4.95;;;13.80;99.90;;;;;;5043125;28;20963;-67
2021/09/28 07:32:39;;;;;;;16.83;5.15;;;14.00;99.90;;;;;;5027496;28;20491;-67
2021/09/28 07:35:07;;;;;;;13.10;5.13;;;14.10;99.90;;;;;;5027714;28;20391;-67
2021/09/28 07:37:33;;;;;;;13.00;4.75;;;14.20;99.90;;;;;;5015498;28;20124;-67
2021/09/28 07:39:59;;;;;;;18.25;5.90;;;14.20;99.90;;;;;;5041918;28;20725;-67
2021/09/28 07:42:26;;;;;;;11.32;4.93;;;14.10;99.90;;;;;;5026035;28;20041;-67
2021/09/28 07:44:53;;;;;;;16.88;5.80;;;14.00;99.90;;;;;;5043537;28;20041;-67
2021/09/28 07:47:19;;;;;;;15.63;6.93;;;13.90;99.90;;;;;;5027505;28;20037;-67
2021/09/28 07:49:45;;;;;;;11.63;5.68;;;13.80;99.90;;;;;;5027503;28;20094;-67
2021/09/28 07:52:11;;;;;;;14.98;6.50;;;13.70;99.90;;;;;;5026987;28;20045;-67
2021/09/28 07:54:38;;;;;;;18.90;5.97;;;13.70;99.90;;;;;;5044029;28;20781;-67
2021/09/28 07:57:04;;;;;;;16.67;6.22;;;13.70;99.90;;;;;;5027747;28;20495;-67
2021/09/28 07:59:30;;;;;;;15.77;5.68;;;13.80;99.90;;;;;;5026912;28;20045;-67
2021/09/28 08:01:56;;;;;;;16.27;6.55;;;13.70;99.90;;;;;;5025878;28;20558;-67
2021/09/28 08:04:21;;;;;;;13.88;5.15;;;13.80;99.90;;;;;;5025982;28;20123;-67
2021/09/28 08:06:48;;;;;;;17.60;6.63;;;13.80;99.90;;;;;;5026616;28;20045;-67
2021/09/28 08:09:14;;;;;;;19.83;5.80;;;13.80;99.90;;;;;;5026773;28;20087;-67
2021/09/28 08:11:40;;;;;;;20.33;7.18;;;13.80;99.90;;;;;;5027271;28;20053;-67
2021/09/28 08:14:07;;;;;;;16.67;5.53;;;13.80;99.90;;;;;;5026450;28;20041;-67
2021/09/28 08:16:34;;;;;;;20.80;6.72;;;13.80;99.90;;;;;;5024922;28;20099;-67
2021/09/28 08:19:00;;;;;;;17.20;5.90;;;13.80;99.90;;;;;;5027627;28;20064;-67
2021/09/28 08:21:26;;;;;;;15.18;4.82;;;13.90;99.90;;;;;;5027964;28;20116;-67
2021/09/28 08:23:51;;;;;;;12.45;5.70;;;13.90;99.90;;;;;;5042987;28;20535;-67
2021/09/28 08:29:09;;;;;;;12.90;6.45;;;14.00;99.90;;;;;;5044598;28;20067;-67
2021/09/28 08:31:43;;;;;;;14.80;4.85;;;14.10;99.90;;;;;;5040732;28;20047;-67
2021/09/28 08:34:10;;;;;;;12.82;5.10;;;14.10;99.90;;;;;;5025775;28;20729;-67
2021/09/28 08:36:37;;;;;;;15.38;5.03;;;14.20;99.90;;;;;;5042362;28;20436;-68
2021/09/28 08:39:04;;;;;;;14.77;5.35;;;14.30;99.90;;;;;;5042722;28;20041;-68
2021/09/28 08:41:30;;;;;;;17.45;5.50;;;14.40;99.90;;;;;;5041827;28;20045;-68
2021/09/28 08:43:55;;;;;;;15.55;5.15;;;14.40;99.90;;;;;;5026293;28;20045;-68
2021/09/28 08:46:21;;;;;;;15.23;4.88;;;14.50;99.90;;;;;;5043813;28;20041;-68
2021/09/28 08:48:48;;;;;;;21.00;5.28;;;14.50;99.90;;;;;;5042690;28;20029;-68
2021/09/28 08:51:14;;;;;;;15.38;5.07;;;14.60;99.90;;;;;;5042809;28;20073;-68
2021/09/28 08:53:41;;;;;;;18.70;6.05;;;14.70;99.90;;;;;;5044791;28;20067;-68
2021/09/28 08:56:12;;;;;;;18.02;5.25;;;14.80;99.90;;;;;;5042553;28;20120;-68
2021/09/28 08:58:58;;;;;;;15.25;5.10;;;14.90;99.90;;;;;;5023917;28;20059;-68
2021/09/28 09:01:25;;;;;;;15.85;5.20;;;15.00;99.90;;;;;;5023908;28;20051;-68
2021/09/28 09:03:51;;;;;;;14.40;4.88;;;15.10;99.90;;;;;;5041610;28;20055;-68
2021/09/28 09:06:17;;;;;;;14.40;4.85;;;15.30;99.90;;;;;;5042541;28;20036;-68
2021/09/28 09:08:48;;;;;;;18.42;4.00;;;15.40;99.90;;;;;;5024358;28;20041;-68
2021/09/28 09:11:16;;;;;;;14.85;4.07;;;15.50;99.90;;;;;;5025145;28;20486;-68
2021/09/28 09:13:50;;;;;;;16.63;4.03;;;15.60;99.90;;;;;;5024909;28;20103;-68
2021/09/28 09:16:18;;;;;;;11.20;3.45;;;15.70;99.90;;;;;;5025887;28;20041;-68
2021/09/28 09:18:46;;;;;;;11.75;3.80;;;15.80;99.90;;;;;;5025354;28;20036;-68
2021/09/28 09:21:14;;;;;;;19.05;3.88;;;15.80;99.90;;;;;;5025032;28;20164;-68
2021/09/28 09:23:42;;;;;;;15.52;4.00;;;15.90;99.90;;;;;;5043536;28;20754;-68
2021/09/28 09:26:13;;;;;;;12.50;3.30;;;15.90;99.90;;;;;;5023671;28;20033;-68
2021/09/28 09:28:57;;;;;;;16.25;4.15;;;16.00;99.90;;;;;;5041858;28;20045;-68
2021/09/28 09:31:34;;;;;;;13.50;3.30;;;16.10;99.90;;;;;;5043068;28;20048;-68
2021/09/28 09:34:21;;;;;;;12.10;3.88;;;16.10;99.90;;;;;;5023689;28;20049;-68
2021/09/28 09:36:58;;;;;;;10.52;3.78;;;16.20;99.90;;;;;;5026057;28;20075;-68
2021/09/28 09:39:28;;;;;;;15.80;3.45;;;16.30;99.90;;;;;;5026063;28;20036;-68
2021/09/28 09:42:06;;;;;;;15.07;3.55;;;16.40;99.90;;;;;;5025638;28;20056;-68
2021/09/28 09:44:32;;;;;;;15.88;3.75;;;16.50;99.90;;;;;;5023929;28;20041;-68
2021/09/28 09:47:01;;;;;;;11.57;3.35;;;16.60;99.90;;;;;;5041905;28;20041;-68
2021/09/28 09:49:33;;;;;;;14.65;3.30;;;16.80;99.90;;;;;;5039922;28;20043;-68
2021/09/28 09:52:09;;;;;;;16.00;3.00;;;16.90;99.90;;;;;;5043651;28;20033;-68
2021/09/28 09:54:39;;;;;;;;;;;17.00;99.90;;;;;;5045245;28;20073;-68
2021/09/28 09:57:06;;;;;;;14.32;2.25;;;17.10;99.90;;;;;;5027302;28;20031;-68
2021/09/28 09:59:33;;;;;;;10.50;2.55;;;17.20;99.90;;;;;;5028875;28;20087;-68
2021/09/28 10:01:58;;;;;;;13.30;2.80;;;17.40;99.90;;;;;;5046542;28;20045;-68
2021/09/28 10:04:24;;;;;;;14.63;2.13;;;17.50;99.90;;;;;;5023426;28;20047;-68
2021/09/28 10:06:52;;;;;;;14.02;2.67;;;17.70;99.90;;;;;;5044071;28;20490;-68
2021/09/28 10:09:20;;;;;;;15.65;2.72;;;17.80;99.90;;;;;;5045197;28;20048;-68
2021/09/28 10:11:51;;;;;;;14.90;3.40;;;18.00;99.90;;;;;;5029906;28;20041;-68
2021/09/28 10:14:36;;;;;;;10.38;2.70;;;18.20;99.90;;;;;;5047298;28;20033;-68
2021/09/28 10:17:20;;;;;;;15.07;2.47;;;18.30;99.90;;;;;;5029672;28;20040;-68
2021/09/28 10:19:51;;;;;;;13.10;2.90;;;18.40;99.90;;;;;;5028088;28;20049;-68
2021/09/28 10:22:36;;;;;;;9.70;2.35;;;18.50;99.90;;;;;;5045085;28;20045;-68
2021/09/28 10:25:22;;;;;;;9.57;2.28;;;18.60;99.90;;;;;;5045549;28;20671;-68
2021/09/28 10:27:49;;;;;;;14.55;3.35;;;18.80;99.90;;;;;;5033424;28;20033;-68
2021/09/28 10:30:33;;;;;;;13.25;3.15;;;18.90;99.90;;;;;;5044517;28;20044;-68
2021/09/28 10:33:11;;;;;;;12.25;1.98;;;19.00;99.90;;;;;;5042179;28;20127;-68
2021/09/28 10:35:54;;;;;;;11.75;2.40;;;19.10;99.90;;;;;;5030139;28;20041;-68
2021/09/28 10:38:44;;;;;;;10.95;1.95;;;19.20;99.90;;;;;;5027374;28;20080;-68
2021/09/28 10:41:28;;;;;;;13.35;2.30;;;19.40;99.90;;;;;;5029684;28;20049;-68
2021/09/28 10:43:54;;;;;;;14.45;3.17;;;19.50;99.90;;;;;;5044962;28;20098;-67
2021/09/28 10:46:38;;;;;;;12.30;2.03;;;19.50;99.90;;;;;;5028494;28;20390;-68
2021/09/28 10:49:22;;;;;;;11.77;2.28;;;19.80;99.90;;;;;;5027887;28;20049;-68
2021/09/28 10:51:48;;;;;;;12.15;2.78;;;19.90;99.90;;;;;;5028920;28;20124;-68
2021/09/28 10:54:13;;;;;;;13.95;3.40;;;19.90;99.90;;;;;;5030019;28;20506;-68
2021/09/28 10:56:50;;;;;;;9.82;2.38;;;20.00;99.90;;;;;;5045789;28;20056;-68
2021/09/28 10:59:16;;;;;;;10.82;2.30;;;20.10;99.90;;;;;;5027977;28;20561;-68
2021/09/28 11:02:09;;;;;;;11.07;3.20;;;20.20;99.90;;;;;;5046413;28;20098;-68
2021/09/28 11:04:34;;;;;;;14.05;2.72;;;20.30;99.90;;;;;;5024788;28;20074;-68
2021/09/28 11:07:13;;;;;;;11.68;2.30;;;20.40;99.90;;;;;;5027071;28;20083;-69
2021/09/28 11:09:45;;;;;;;11.57;2.55;;;20.50;99.90;;;;;;5044003;28;20049;-68
2021/09/28 11:12:12;;;;;;;11.02;2.88;;;20.60;99.90;;;;;;5025995;28;20040;-68
2021/09/28 11:14:38;;;;;;;13.60;2.50;;;20.60;99.90;;;;;;5023013;28;20626;-68
2021/09/28 11:17:15;;;;;;;12.70;2.70;;;20.60;99.90;;;;;;5026376;28;20038;-68
2021/09/28 11:19:41;;;;;;;13.45;2.60;;;20.70;99.90;;;;;;5027209;28;20067;-68
2021/09/28 11:22:16;;;;;;;9.02;2.53;;;20.70;99.90;;;;;;5010593;28;20049;-68
2021/09/28 11:24:42;;;;;;;15.93;2.33;;;20.80;99.90;;;;;;5042787;28;20047;-67
2021/09/28 11:27:10;;;;;;;12.50;2.08;;;20.90;99.90;;;;;;5043414;28;20037;-67
2021/09/28 11:29:37;;;;;;;10.23;2.15;;;21.00;99.90;;;;;;5028179;28;20052;-67
2021/09/28 11:32:05;;;;;;;9.07;2.67;;;21.00;99.90;;;;;;5027416;28;20516;-67
2021/09/28 11:34:34;;;;;;;9.82;2.42;;;21.10;99.90;;;;;;5026450;28;20059;-67
2021/09/28 11:37:03;;;;;;;10.93;2.03;;;21.10;99.90;;;;;;5027178;28;20056;-68
2021/09/28 11:39:34;;;;;;;9.80;1.98;;;21.10;99.90;;;;;;5027484;28;20056;-68
2021/09/28 11:42:00;;;;;;;8.38;2.08;;;21.10;99.90;;;;;;5044508;28;20191;-67
2021/09/28 11:44:34;;;;;;;13.68;2.30;;;21.10;99.90;;;;;;5026154;28;20048;-68
2021/09/28 11:47:00;;;;;;;9.45;2.30;;;21.10;99.90;;;;;;5027221;28;20507;-68
2021/09/28 11:49:26;;;;;;;8.30;2.28;;;21.20;99.90;;;;;;5027361;28;20041;-67
2021/09/28 11:51:53;;;;;;;10.68;2.15;;;21.20;99.90;;;;;;5044601;28;20045;-67
2021/09/28 11:54:18;;;;;;;11.95;1.75;;;21.30;99.90;;;;;;5028684;28;20128;-68
2021/09/28 11:56:46;;;;;;;7.43;1.20;;;21.30;99.90;;;;;;5042618;28;20045;-68
2021/09/28 11:59:18;;;;;;;10.85;2.33;;;21.30;99.90;;;;;;5027420;28;20044;-68
2021/09/28 12:01:45;;;;;;;7.35;1.85;;;21.30;99.90;;;;;;5026689;28;20040;-67
2021/09/28 12:04:20;;;;;;;11.38;2.15;;;21.40;99.90;;;;;;5026102;28;20045;-68
2021/09/28 12:07:07;;;;;;;13.18;2.13;;;21.40;99.90;;;;;;5028146;28;20056;-68
2021/09/28 12:09:39;;;;;;;8.90;1.40;;;21.40;99.90;;;;;;5026297;28;20495;-68
2021/09/28 12:12:10;;;;;;;8.82;1.23;;;21.50;99.90;;;;;;5026555;28;20098;-68
2021/09/28 12:14:38;;;;;;;5.15;1.15;;;21.50;99.90;;;;;;5041391;28;20132;-68
2021/09/28 12:17:22;;;;;;;12.68;2.17;;;21.50;99.90;;;;;;5026604;28;20056;-68
2021/09/28 12:20:05;;;;;;;10.32;2.00;;;21.40;99.90;;;;;;5026123;28;20133;-68
2021/09/28 12:22:57;;;;;;;9.10;1.10;;;21.40;99.90;;;;;;5044954;28;20498;-67
2021/09/28 12:25:26;;;;;;;10.48;1.98;;;21.50;99.90;;;;;;5042511;28;20069;-68
2021/09/28 12:28:01;;;;;;;10.63;1.98;;;21.40;99.90;;;;;;5026615;28;20053;-68
2021/09/28 12:30:33;;;;;;;9.05;1.30;;;21.50;99.90;;;;;;5044753;28;20028;-68
2021/09/28 12:32:59;;;;;;;8.30;1.90;;;21.50;99.90;;;;;;5024992;28;20506;-67
2021/09/28 12:35:32;;;;;;;11.02;2.05;;;21.50;99.90;;;;;;5044853;28;20657;-67
2021/09/28 12:38:01;;;;;;;7.28;1.52;;;21.60;99.90;;;;;;5027029;28;20053;-68
2021/09/28 12:40:30;;;;;;;11.35;2.25;;;21.60;99.90;;;;;;5043294;28;20041;-68
2021/09/28 12:43:07;;;;;;;8.23;1.60;;;21.40;99.90;;;;;;5025276;28;20064;-68
2021/09/28 12:45:45;;;;;;;11.40;3.15;;;21.30;99.90;;;;;;5026754;28;20041;-68
2021/09/28 12:48:12;;;;;;;12.40;2.42;;;21.20;99.90;;;;;;5023771;28;20041;-68